createdAt,value
2023-05-20T00:01:27.960Z,101969.81
2023-05-20T00:03:54.686Z,101968.81
2023-05-20T00:06:21.450Z,101971.78
2023-05-20T00:08:47.915Z,101965.94
2023-05-20T00:11:14.523Z,101966.31
2023-05-20T00:13:41.103Z,101968.03
2023-05-20T00:16:07.785Z,101960.28
2023-05-20T00:18:34.351Z,101962.47
2023-05-20T00:21:00.858Z,101967.50
2023-05-20T00:23:27.365Z,101968.88
2023-05-20T00:25:53.885Z,101959.13
2023-05-20T00:28:20.430Z,101953.72
2023-05-20T00:30:47.113Z,101956.34
2023-05-20T00:33:13.653Z,101959.59
2023-05-20T00:35:40.242Z,101952.31
2023-05-20T00:38:06.852Z,101950.66
2023-05-20T00:40:33.383Z,101953.72
2023-05-20T00:42:59.955Z,101953.19
2023-05-20T00:45:26.823Z,101950.56
2023-05-20T00:47:53.863Z,101953.19
2023-05-20T00:50:20.900Z,101955.38
2023-05-20T00:52:48.344Z,101955.38
2023-05-20T00:55:14.980Z,101952.94
2023-05-20T00:57:41.578Z,101958.16
2023-05-20T01:00:10.544Z,101949.94
2023-05-20T01:02:37.279Z,101946.31
2023-05-20T01:05:04.034Z,101951.94
2023-05-20T01:07:31.424Z,101947.25
2023-05-20T01:09:57.997Z,101951.28
2023-05-20T01:12:31.698Z,101941.28
2023-05-20T01:15:19.380Z,101935.22
2023-05-20T01:17:52.465Z,101932.97
2023-05-20T01:20:20.710Z,101930.56
2023-05-20T01:22:48.043Z,101942.28
2023-05-20T01:25:14.655Z,101936.59
2023-05-20T01:27:41.496Z,101939.84
2023-05-20T01:30:08.820Z,101942.47
2023-05-20T01:32:45.196Z,101937.25
2023-05-20T01:35:12.210Z,101943.72
2023-05-20T01:37:40.745Z,101943.25
2023-05-20T01:40:08.601Z,101936.88
2023-05-20T01:42:36.583Z,101937.13
2023-05-20T01:45:03.804Z,101928.63
2023-05-20T01:47:31.257Z,101924.41
2023-05-20T01:49:57.907Z,101929.38
2023-05-20T01:52:24.502Z,101931.00
2023-05-20T01:54:51.410Z,101922.53
2023-05-20T01:57:22.948Z,101936.69
2023-05-20T01:59:49.925Z,101925.41
2023-05-20T02:02:17.180Z,101933.81
2023-05-20T02:04:49.178Z,101932.00
2023-05-20T02:07:17.004Z,101930.38
2023-05-20T02:09:43.590Z,101921.72
2023-05-20T02:12:16.377Z,101931.19
2023-05-20T02:14:47.602Z,101914.66
2023-05-20T02:17:16.418Z,101921.09
2023-05-20T02:19:44.262Z,101928.50
2023-05-20T02:22:10.828Z,101911.97
2023-05-20T02:24:37.366Z,101913.25
2023-05-20T02:27:04.813Z,101915.03
2023-05-20T02:29:31.446Z,101917.91
2023-05-20T02:31:58.330Z,101917.09
2023-05-20T02:34:26.338Z,101922.16
2023-05-20T02:36:53.403Z,101917.53
2023-05-20T02:39:20.076Z,101917.34
2023-05-20T02:41:46.585Z,101918.38
2023-05-20T02:44:13.181Z,101922.34
2023-05-20T02:46:39.791Z,101923.53
2023-05-20T02:49:06.368Z,101921.88
2023-05-20T02:51:33.382Z,101928.94
2023-05-20T02:54:00.122Z,101933.53
2023-05-20T02:56:27.109Z,101931.38
2023-05-20T02:58:53.626Z,101935.16
2023-05-20T03:01:20.307Z,101927.31
2023-05-20T03:03:46.838Z,101927.69
2023-05-20T03:06:13.415Z,101932.09
2023-05-20T03:08:39.975Z,101931.91
2023-05-20T03:11:07.030Z,101933.53
2023-05-20T03:13:34.987Z,101936.59
2023-05-20T03:16:01.842Z,101937.25
2023-05-20T03:18:28.404Z,101943.06
2023-05-20T03:20:54.922Z,101937.84
2023-05-20T03:23:21.511Z,101943.06
2023-05-20T03:25:48.456Z,101938.47
2023-05-20T03:28:14.954Z,101941.09
2023-05-20T03:30:41.452Z,101945.16
2023-05-20T03:33:08.081Z,101940.13
2023-05-20T03:35:34.773Z,101947.59
2023-05-20T03:38:01.849Z,101941.16
2023-05-20T03:40:28.629Z,101949.81
2023-05-20T03:42:55.652Z,101957.50
2023-05-20T03:45:22.204Z,101954.34
2023-05-20T03:47:48.810Z,101953.78
2023-05-20T03:50:15.596Z,101961.25
2023-05-20T03:52:42.220Z,101956.03
2023-05-20T03:55:09.206Z,101964.50
2023-05-20T03:57:36.670Z,101964.31
2023-05-20T04:00:10.189Z,101970.19
2023-05-20T04:02:36.876Z,101969.81
2023-05-20T04:05:03.657Z,101969.63
2023-05-20T04:07:30.230Z,101972.88
2023-05-20T04:09:57.068Z,101975.09
2023-05-20T04:12:26.002Z,101970.31
2023-05-20T04:14:52.791Z,101969.34
2023-05-20T04:17:19.398Z,101974.19
2023-05-20T04:19:46.198Z,101967.59
2023-05-20T04:22:12.815Z,101965.97
2023-05-20T04:24:39.325Z,101965.34
2023-05-20T04:27:06.016Z,101963.00
2023-05-20T04:29:34.266Z,101972.94
2023-05-20T04:32:01.271Z,101965.75
2023-05-20T04:34:30.715Z,101970.00
2023-05-20T04:36:57.953Z,101972.59
2023-05-20T04:39:24.554Z,101974.06
2023-05-20T04:41:51.139Z,101981.16
2023-05-20T04:44:17.699Z,101976.34
2023-05-20T04:46:44.726Z,101966.25
2023-05-20T04:49:11.225Z,101967.00
2023-05-20T04:51:37.867Z,101963.78
2023-05-20T04:54:04.359Z,101966.81
2023-05-20T04:56:30.833Z,101966.63
2023-05-20T04:58:58.770Z,101977.34
2023-05-20T05:01:25.376Z,101969.88
2023-05-20T05:03:51.921Z,101968.50
2023-05-20T05:06:18.595Z,101970.84
2023-05-20T05:08:45.565Z,101962.47
2023-05-20T05:11:12.130Z,101966.44
2023-05-20T05:13:38.621Z,101971.19
2023-05-20T05:16:05.684Z,101966.13
2023-05-20T05:18:32.435Z,101975.03
2023-05-20T05:21:03.766Z,101977.28
2023-05-20T05:23:30.785Z,101972.28
2023-05-20T05:25:57.448Z,101975.72
2023-05-20T05:28:24.250Z,101969.06
2023-05-20T05:30:51.440Z,101976.34
2023-05-20T05:33:18.117Z,101970.34
2023-05-20T05:35:44.694Z,101972.97
2023-05-20T05:38:11.206Z,101974.00
2023-05-20T05:40:37.824Z,101975.25
2023-05-20T05:43:04.452Z,101975.50
2023-05-20T05:45:31.135Z,101973.88
2023-05-20T05:47:58.015Z,101971.31
2023-05-20T05:50:24.601Z,101969.66
2023-05-20T05:52:51.114Z,101977.78
2023-05-20T05:55:18.455Z,101984.84
2023-05-20T05:57:45.291Z,101977.41
2023-05-20T06:00:12.300Z,101980.47
2023-05-20T06:02:38.834Z,101978.50
2023-05-20T06:05:06.083Z,101979.78
2023-05-20T06:07:32.674Z,101972.75
2023-05-20T06:09:59.501Z,101970.78
2023-05-20T06:12:26.113Z,101970.66
2023-05-20T06:14:52.684Z,101971.06
2023-05-20T06:17:19.238Z,101966.44
2023-05-20T06:19:46.256Z,101965.25
2023-05-20T06:22:12.760Z,101974.19
2023-05-20T06:24:39.348Z,101981.09
2023-05-20T06:27:06.121Z,101968.97
2023-05-20T06:29:32.678Z,101975.72
2023-05-20T06:31:59.873Z,101977.97
2023-05-20T06:34:26.486Z,101972.09
2023-05-20T06:36:53.419Z,101984.25
2023-05-20T06:39:19.976Z,101983.44
2023-05-20T06:41:46.567Z,101975.41
2023-05-20T06:44:13.113Z,101975.81
2023-05-20T06:46:39.665Z,101976.81
2023-05-20T06:49:06.292Z,101967.31
2023-05-20T06:51:32.919Z,101969.53
2023-05-20T06:53:59.517Z,101966.91
2023-05-20T06:56:26.136Z,101966.31
2023-05-20T06:58:52.780Z,101961.88
2023-05-20T07:01:19.341Z,101966.69
2023-05-20T07:03:46.020Z,101964.28
2023-05-20T07:06:12.559Z,101965.28
2023-05-20T07:08:39.094Z,101957.41
2023-05-20T07:11:05.862Z,101946.91
2023-05-20T07:13:32.380Z,101942.78
2023-05-20T07:15:59.067Z,101941.16
2023-05-20T07:18:25.664Z,101940.09
2023-05-20T07:20:52.919Z,101934.91
2023-05-20T07:23:19.487Z,101926.75
2023-05-20T07:25:46.116Z,101920.00
2023-05-20T07:28:12.786Z,101918.56
2023-05-20T07:30:39.333Z,101920.53
2023-05-20T07:33:05.959Z,101920.69
2023-05-20T07:35:32.980Z,101923.88
2023-05-20T07:37:59.993Z,101925.78
2023-05-20T07:40:26.662Z,101925.19
2023-05-20T07:42:53.175Z,101924.34
2023-05-20T07:45:19.880Z,101916.38
2023-05-20T07:47:46.695Z,101908.63
2023-05-20T07:50:13.204Z,101907.94
2023-05-20T07:55:09.138Z,101912.34
2023-05-20T07:57:35.652Z,101901.63
2023-05-20T08:00:02.250Z,101902.44
2023-05-20T08:02:28.856Z,101902.00
2023-05-20T08:04:55.462Z,101906.25
2023-05-20T08:07:22.083Z,101909.38
2023-05-20T08:09:48.774Z,101903.88
2023-05-20T08:12:15.643Z,101899.75
2023-05-20T08:14:43.639Z,101895.94
2023-05-20T08:17:10.307Z,101889.06
2023-05-20T08:19:36.954Z,101902.41
2023-05-20T08:22:03.533Z,101904.56
2023-05-20T08:24:30.054Z,101894.34
2023-05-20T08:26:56.741Z,101894.72
2023-05-20T08:29:23.507Z,101901.66
2023-05-20T08:31:50.058Z,101900.53
2023-05-20T08:34:16.695Z,101898.56
2023-05-20T08:36:45.175Z,101894.53
2023-05-20T08:39:11.671Z,101897.44
2023-05-20T08:41:39.535Z,101893.25
2023-05-20T08:44:08.147Z,101892.56
2023-05-20T08:46:36.636Z,101901.31
2023-05-20T08:49:03.219Z,101889.03
2023-05-20T08:51:32.379Z,101891.00
2023-05-20T08:54:02.631Z,101888.22
2023-05-20T08:56:31.159Z,101892.03
2023-05-20T08:58:57.773Z,101892.81
2023-05-20T09:01:25.955Z,101891.88
2023-05-20T09:03:53.033Z,101888.78
2023-05-20T09:06:20.387Z,101885.91
2023-05-20T09:08:50.734Z,101892.13
2023-05-20T09:11:17.725Z,101890.06
2023-05-20T09:13:44.754Z,101895.13
2023-05-20T09:16:11.752Z,101893.63
2023-05-20T09:18:40.215Z,101893.97
2023-05-20T09:21:07.107Z,101898.44
2023-05-20T09:23:36.622Z,101902.13
2023-05-20T09:26:04.273Z,101895.31
2023-05-20T09:28:30.881Z,101895.03
2023-05-20T09:31:02.161Z,101891.56
2023-05-20T09:33:30.612Z,101888.69
2023-05-20T09:36:10.566Z,101891.56
2023-05-20T09:38:40.158Z,101897.78
2023-05-20T09:41:11.979Z,101889.75
2023-05-20T09:43:42.578Z,101893.59
2023-05-20T09:46:09.861Z,101889.88
2023-05-20T09:48:39.920Z,101880.88
2023-05-20T09:51:07.747Z,101889.28
2023-05-20T09:53:35.011Z,101889.38
2023-05-20T09:56:01.738Z,101885.22
2023-05-20T09:58:29.636Z,101879.16
2023-05-20T10:00:56.208Z,101883.06
2023-05-20T10:03:28.037Z,101882.47
2023-05-20T10:06:21.026Z,101890.41
2023-05-20T10:09:05.646Z,101869.00
2023-05-20T10:11:47.008Z,101870.63
2023-05-20T10:14:24.691Z,101870.50
2023-05-20T10:17:12.888Z,101861.25
2023-05-20T10:19:39.857Z,101858.09
2023-05-20T10:22:10.919Z,101861.72
2023-05-20T10:24:44.655Z,101862.00
2023-05-20T10:27:15.335Z,101858.44
2023-05-20T10:29:52.021Z,101852.13
2023-05-20T10:32:33.576Z,101855.66
2023-05-20T10:35:04.862Z,101847.50
2023-05-20T10:37:43.426Z,101844.13
2023-05-20T10:40:12.314Z,101842.47
2023-05-20T10:42:39.634Z,101841.25
2023-05-20T10:45:07.426Z,101836.56
2023-05-20T10:47:34.775Z,101843.06
2023-05-20T10:50:02.721Z,101833.06
2023-05-20T10:52:33.658Z,101840.31
2023-05-20T10:55:01.232Z,101833.47
2023-05-20T10:57:29.338Z,101839.94
2023-05-20T10:59:56.675Z,101841.34
2023-05-20T11:02:26.936Z,101843.00
2023-05-20T11:04:56.062Z,101833.47
2023-05-20T11:07:30.174Z,101832.69
2023-05-20T11:09:59.951Z,101826.94
2023-05-20T11:12:27.871Z,101825.66
2023-05-20T11:14:54.749Z,101829.97
2023-05-20T11:17:21.601Z,101827.06
2023-05-20T11:19:48.689Z,101823.84
2023-05-20T11:22:15.520Z,101815.88
2023-05-20T11:24:42.143Z,101811.44
2023-05-20T11:27:09.320Z,101805.34
2023-05-20T11:29:35.951Z,101792.63
2023-05-20T11:32:05.768Z,101792.78
2023-05-20T11:34:41.862Z,101787.88
2023-05-20T11:37:10.284Z,101785.69
2023-05-20T11:39:37.733Z,101785.75
2023-05-20T11:42:06.156Z,101790.53
2023-05-20T11:44:33.591Z,101789.56
2023-05-20T11:47:02.382Z,101790.88
2023-05-20T11:49:29.224Z,101789.81
2023-05-20T11:51:56.891Z,101784.22
2023-05-20T11:54:24.752Z,101779.00
2023-05-20T11:56:51.690Z,101774.94
2023-05-20T11:59:18.783Z,101774.75
2023-05-20T12:01:45.695Z,101776.75
2023-05-20T12:04:17.518Z,101780.00
2023-05-20T12:06:44.744Z,101777.19
2023-05-20T12:09:11.567Z,101779.28
2023-05-20T12:11:41.573Z,101782.31
2023-05-20T12:14:09.378Z,101782.88
2023-05-20T12:16:40.890Z,101786.25
2023-05-20T12:19:08.854Z,101775.16
2023-05-20T12:21:35.614Z,101777.94
2023-05-20T12:24:02.395Z,101775.88
2023-05-20T12:26:30.142Z,101791.50
2023-05-20T12:28:57.078Z,101774.34
2023-05-20T12:31:23.904Z,101781.69
2023-05-20T12:33:50.735Z,101763.53
2023-05-20T12:36:17.608Z,101767.28
2023-05-20T12:38:44.688Z,101757.06
2023-05-20T12:41:11.378Z,101763.63
2023-05-20T12:43:38.058Z,101754.97
2023-05-20T12:46:05.866Z,101743.41
2023-05-20T12:48:32.917Z,101742.75
2023-05-20T12:51:00.477Z,101742.25
2023-05-20T12:53:27.072Z,101736.91
2023-05-20T12:55:53.932Z,101734.47
2023-05-20T12:58:20.657Z,101735.94
2023-05-20T13:00:47.351Z,101726.44
2023-05-20T13:03:14.180Z,101720.50
2023-05-20T13:05:40.949Z,101723.66
2023-05-20T13:08:09.092Z,101724.94
2023-05-20T13:10:36.280Z,101726.63
2023-05-20T13:13:03.061Z,101721.63
2023-05-20T13:15:29.777Z,101714.31
2023-05-20T13:17:56.554Z,101714.69
2023-05-20T13:20:23.331Z,101714.03
2023-05-20T13:22:50.473Z,101719.50
2023-05-20T13:25:17.611Z,101706.09
2023-05-20T13:27:44.304Z,101717.38
2023-05-20T13:30:11.398Z,101718.03
2023-05-20T13:32:38.187Z,101709.09
2023-05-20T13:35:05.450Z,101707.22
2023-05-20T13:37:32.131Z,101713.91
2023-05-20T13:39:58.735Z,101694.63
2023-05-20T13:42:25.429Z,101699.56
2023-05-20T13:44:54.931Z,101698.03
2023-05-20T13:47:21.535Z,101706.13
2023-05-20T13:49:48.345Z,101698.97
2023-05-20T13:52:15.097Z,101694.47
2023-05-20T13:54:43.062Z,101689.66
2023-05-20T13:57:09.708Z,101680.38
2023-05-20T13:59:36.299Z,101671.19
2023-05-20T14:02:03.432Z,101681.19
2023-05-20T14:04:31.333Z,101679.38
2023-05-20T14:06:59.323Z,101679.72
2023-05-20T14:09:25.974Z,101672.84
2023-05-20T14:11:52.518Z,101671.56
2023-05-20T14:14:19.010Z,101661.41
2023-05-20T14:16:45.587Z,101673.66
2023-05-20T14:19:12.164Z,101672.03
2023-05-20T14:21:38.771Z,101670.84
2023-05-20T14:24:05.970Z,101657.38
2023-05-20T14:26:34.468Z,101661.28
2023-05-20T14:29:01.482Z,101659.44
2023-05-20T14:31:28.450Z,101650.53
2023-05-20T14:33:55.340Z,101649.50
2023-05-20T14:36:22.185Z,101649.28
2023-05-20T14:38:49.563Z,101650.56
2023-05-20T14:41:16.710Z,101653.25
2023-05-20T14:43:43.469Z,101644.97
2023-05-20T14:46:10.543Z,101648.53
2023-05-20T14:48:37.438Z,101647.69
2023-05-20T14:51:04.120Z,101638.13
2023-05-20T14:53:30.819Z,101636.94
2023-05-20T14:55:57.590Z,101639.63
2023-05-20T14:58:24.288Z,101633.22
2023-05-20T15:00:53.127Z,101635.25
2023-05-20T15:03:20.478Z,101639.56
2023-05-20T15:05:47.106Z,101629.47
2023-05-20T15:08:13.754Z,101625.19
2023-05-20T15:10:40.564Z,101621.97
2023-05-20T15:13:07.155Z,101607.28
2023-05-20T15:15:34.432Z,101615.88
2023-05-20T15:18:01.284Z,101614.88
2023-05-20T15:20:28.069Z,101610.41
2023-05-20T15:22:54.935Z,101609.06
2023-05-20T15:25:21.553Z,101595.16
2023-05-20T15:27:48.301Z,101595.91
2023-05-20T15:30:15.130Z,101590.84
2023-05-20T15:32:42.834Z,101579.91
2023-05-20T15:35:09.805Z,101581.59
2023-05-20T15:37:36.747Z,101589.59
2023-05-20T15:40:04.604Z,101586.69
2023-05-20T15:42:31.813Z,101586.00
2023-05-20T15:44:58.563Z,101582.09
2023-05-20T15:47:25.121Z,101578.09
2023-05-20T15:49:52.055Z,101577.88
2023-05-20T15:52:18.619Z,101574.94
2023-05-20T15:54:45.107Z,101578.38
2023-05-20T15:57:11.730Z,101572.31
2023-05-20T15:59:38.346Z,101564.59
2023-05-20T16:02:04.940Z,101566.25
2023-05-20T16:04:32.670Z,101563.06
2023-05-20T16:06:59.435Z,101556.22
2023-05-20T16:09:26.382Z,101554.63
2023-05-20T16:11:52.907Z,101554.69
2023-05-20T16:14:19.477Z,101552.28
2023-05-20T16:16:46.378Z,101549.09
2023-05-20T16:19:13.091Z,101550.69
2023-05-20T16:21:39.796Z,101553.56
2023-05-20T16:24:06.645Z,101553.56
2023-05-20T16:26:33.248Z,101549.25
2023-05-20T16:28:59.859Z,101540.50
2023-05-20T16:31:26.737Z,101545.50
2023-05-20T16:33:53.427Z,101551.06
2023-05-20T16:36:19.937Z,101543.06
2023-05-20T16:38:46.928Z,101540.09
2023-05-20T16:41:15.945Z,101536.13
2023-05-20T16:43:42.750Z,101533.94
2023-05-20T16:46:09.366Z,101536.69
2023-05-20T16:48:36.004Z,101543.59
2023-05-20T16:51:02.719Z,101544.44
2023-05-20T16:53:29.264Z,101540.22
2023-05-20T16:55:55.938Z,101538.88
2023-05-20T16:58:22.976Z,101543.19
2023-05-20T17:00:49.678Z,101536.50
2023-05-20T17:03:18.019Z,101533.63
2023-05-20T17:05:44.684Z,101528.84
2023-05-20T17:08:11.225Z,101530.97
2023-05-20T17:10:37.874Z,101532.31
2023-05-20T17:13:04.508Z,101529.63
2023-05-20T17:15:32.682Z,101536.31
2023-05-20T17:17:59.180Z,101534.47
2023-05-20T17:20:25.963Z,101535.25
2023-05-20T17:22:52.562Z,101533.13
2023-05-20T17:25:19.137Z,101532.88
2023-05-20T17:27:45.627Z,101531.81
2023-05-20T17:30:12.567Z,101531.28
2023-05-20T17:32:40.439Z,101532.06
2023-05-20T17:35:08.171Z,101527.25
2023-05-20T17:37:34.905Z,101524.59
2023-05-20T17:40:01.617Z,101518.38
2023-05-20T17:42:28.164Z,101523.06
2023-05-20T17:44:54.728Z,101529.03
2023-05-20T17:47:21.249Z,101521.56
2023-05-20T17:49:47.834Z,101528.03
2023-05-20T17:52:14.398Z,101514.09
2023-05-20T17:54:41.101Z,101514.09
2023-05-20T17:57:07.630Z,101510.69
2023-05-20T17:59:36.656Z,101511.28
2023-05-20T18:02:06.335Z,101506.50
2023-05-20T18:04:33.079Z,101502.00
2023-05-20T18:06:59.714Z,101496.94
2023-05-20T18:09:26.321Z,101493.47
2023-05-20T18:11:52.899Z,101489.97
2023-05-20T18:14:22.682Z,101497.34
2023-05-20T18:16:49.556Z,101494.31
2023-05-20T18:19:16.139Z,101492.56
2023-05-20T18:21:42.773Z,101485.25
2023-05-20T18:24:09.400Z,101480.53
2023-05-20T18:26:36.218Z,101489.56
2023-05-20T18:29:02.940Z,101482.38
2023-05-20T18:31:30.063Z,101478.78
2023-05-20T18:33:56.619Z,101479.91
2023-05-20T18:36:23.136Z,101473.56
2023-05-20T18:38:49.640Z,101478.91
2023-05-20T18:41:16.222Z,101476.38
2023-05-20T18:43:42.760Z,101481.47
2023-05-20T18:46:09.363Z,101487.66
2023-05-20T18:48:37.468Z,101493.06
2023-05-20T18:51:04.056Z,101494.16
2023-05-20T18:53:30.690Z,101494.31
2023-05-20T18:56:01.231Z,101493.38
2023-05-20T18:58:27.938Z,101502.50
2023-05-20T19:00:55.637Z,101490.47
2023-05-20T19:03:26.350Z,101494.53
2023-05-20T19:05:53.004Z,101492.88
2023-05-20T19:08:19.550Z,101492.69
2023-05-20T19:10:46.162Z,101501.56
2023-05-20T19:13:12.867Z,101497.00
2023-05-20T19:15:39.466Z,101496.91
2023-05-20T19:18:06.124Z,101498.41
2023-05-20T19:20:34.366Z,101497.06
2023-05-20T19:23:00.852Z,101497.72
2023-05-20T19:25:27.419Z,101496.84
2023-05-20T19:27:54.193Z,101501.22
2023-05-20T19:30:21.053Z,101499.06
2023-05-20T19:32:47.642Z,101506.63
2023-05-20T19:35:14.304Z,101496.19
2023-05-20T19:37:41.115Z,101501.94
2023-05-20T19:40:08.396Z,101489.94
2023-05-20T19:42:35.759Z,101501.75
2023-05-20T19:45:02.302Z,101503.72
2023-05-20T19:47:28.962Z,101505.44
2023-05-20T19:49:55.522Z,101502.94
2023-05-20T19:52:22.018Z,101498.34
2023-05-20T19:54:49.185Z,101496.19
2023-05-20T19:57:15.726Z,101501.31
2023-05-20T19:59:42.519Z,101495.16
2023-05-20T20:02:09.250Z,101501.91
2023-05-20T20:04:36.239Z,101500.88
2023-05-20T20:07:03.454Z,101499.41
2023-05-20T20:09:30.225Z,101502.56
2023-05-20T20:11:56.805Z,101507.72
2023-05-20T20:14:23.332Z,101498.53
2023-05-20T20:16:50.397Z,101503.94
2023-05-20T20:19:22.648Z,101503.81
2023-05-20T20:21:52.269Z,101501.75
2023-05-20T20:24:19.568Z,101507.25
2023-05-20T20:26:49.232Z,101512.94
2023-05-20T20:29:16.020Z,101511.00
2023-05-20T20:31:42.536Z,101510.63
2023-05-20T20:34:09.167Z,101511.69
2023-05-20T20:36:35.765Z,101512.56
2023-05-20T20:39:04.999Z,101513.59
2023-05-20T20:41:32.858Z,101521.59
2023-05-20T20:44:03.657Z,101515.41
2023-05-20T20:46:31.013Z,101521.09
2023-05-20T20:48:58.302Z,101517.91
2023-05-20T20:51:24.826Z,101515.34
2023-05-20T20:53:52.179Z,101511.34
2023-05-20T20:56:18.704Z,101514.41
2023-05-20T20:58:46.429Z,101507.97
2023-05-20T21:01:17.150Z,101510.84
2023-05-20T21:03:44.682Z,101513.47
2023-05-20T21:06:13.028Z,101512.53
2023-05-20T21:08:39.796Z,101499.19
2023-05-20T21:11:06.408Z,101508.53
2023-05-20T21:13:33.001Z,101503.13
2023-05-20T21:15:59.619Z,101498.31
2023-05-20T21:18:26.146Z,101500.59
2023-05-20T21:20:54.327Z,101499.63
2023-05-20T21:23:21.832Z,101498.03
2023-05-20T21:25:50.251Z,101495.50
2023-05-20T21:28:17.049Z,101495.91
2023-05-20T21:30:45.112Z,101487.47
2023-05-20T21:33:11.907Z,101499.81
2023-05-20T21:35:38.653Z,101499.44
2023-05-20T21:38:05.441Z,101497.84
2023-05-20T21:40:32.019Z,101495.41
2023-05-20T21:42:58.524Z,101501.47
2023-05-20T21:45:25.130Z,101507.34
2023-05-20T21:47:51.778Z,101503.31
2023-05-20T21:50:18.385Z,101493.81
2023-05-20T21:52:44.966Z,101497.69
2023-05-20T21:55:11.610Z,101496.06
2023-05-20T21:57:38.228Z,101499.53
2023-05-20T22:00:09.945Z,101499.97
2023-05-20T22:02:37.285Z,101502.78
2023-05-20T22:05:05.237Z,101503.22
2023-05-20T22:07:33.067Z,101500.59
2023-05-20T22:10:00.653Z,101499.44
2023-05-20T22:12:27.779Z,101497.81
2023-05-20T22:14:54.426Z,101495.63
2023-05-20T22:17:21.829Z,101496.63
2023-05-20T22:19:48.490Z,101495.03
2023-05-20T22:22:15.037Z,101495.72
2023-05-20T22:24:41.697Z,101499.13
2023-05-20T22:27:08.250Z,101496.72
2023-05-20T22:29:35.251Z,101494.66
2023-05-20T22:32:02.011Z,101490.66
2023-05-20T22:34:28.709Z,101486.41
2023-05-20T22:36:55.225Z,101488.81
2023-05-20T22:39:21.813Z,101493.84
2023-05-20T22:41:48.417Z,101485.19
2023-05-20T22:44:15.141Z,101496.94
2023-05-20T22:46:41.681Z,101490.72
2023-05-20T22:49:10.270Z,101492.78
2023-05-20T22:51:38.606Z,101483.09
2023-05-20T22:54:06.843Z,101485.75
2023-05-20T22:56:34.217Z,101483.91
2023-05-20T22:59:01.347Z,101485.50
2023-05-20T23:01:28.010Z,101475.00
2023-05-20T23:03:54.857Z,101480.47
2023-05-20T23:06:22.441Z,101486.56
2023-05-20T23:08:49.161Z,101479.09
2023-05-20T23:11:15.761Z,101479.66
2023-05-20T23:13:42.270Z,101482.06
2023-05-20T23:16:09.320Z,101476.63
2023-05-20T23:18:36.171Z,101478.00
2023-05-20T23:21:02.686Z,101472.88
2023-05-20T23:23:31.738Z,101468.22
2023-05-20T23:25:59.519Z,101477.06
2023-05-20T23:28:26.283Z,101473.19
2023-05-20T23:30:52.849Z,101472.19
2023-05-20T23:33:24.344Z,101467.13
2023-05-20T23:35:51.623Z,101469.19
2023-05-20T23:38:18.356Z,101466.53
2023-05-20T23:40:44.889Z,101475.66
2023-05-20T23:43:11.361Z,101464.34
2023-05-20T23:45:37.969Z,101469.25
2023-05-20T23:48:05.647Z,101474.50
2023-05-20T23:50:32.733Z,101464.63
2023-05-20T23:52:59.426Z,101471.91
2023-05-20T23:55:25.933Z,101470.69
2023-05-20T23:57:52.424Z,101467.91
